sensor_id;sensor_type;location;lat;lon;timestamp;pressure;altitude;pressure_sealevel;temperature;humidity
21566;BME280;10943;48.738;9.320;2022-08-19T00:02:14;98336.34;;;26.07;47.40
21566;BME280;10943;48.738;9.320;2022-08-19T00:04:41;98331.59;;;25.86;49.43
21566;BME280;10943;48.738;9.320;2022-08-19T00:07:09;98336.22;;;25.66;51.38
21566;BME280;10943;48.738;9.320;2022-08-19T00:09:36;98333.63;;;25.48;50.53
21566;BME280;10943;48.738;9.320;2022-08-19T00:12:04;98344.25;;;25.39;51.71
21566;BME280;10943;48.738;9.320;2022-08-19T00:14:31;98352.63;;;25.35;50.94
21566;BME280;10943;48.738;9.320;2022-08-19T00:16:59;98342.78;;;25.33;51.42
21566;BME280;10943;48.738;9.320;2022-08-19T00:19:27;98336.28;;;25.32;51.63
21566;BME280;10943;48.738;9.320;2022-08-19T00:21:55;98331.19;;;25.26;51.63
21566;BME280;10943;48.738;9.320;2022-08-19T00:24:24;98336.84;;;25.26;51.70
21566;BME280;10943;48.738;9.320;2022-08-19T00:26:52;98340.88;;;25.25;51.85
21566;BME280;10943;48.738;9.320;2022-08-19T00:29:22;98336.91;;;25.38;50.48
21566;BME280;10943;48.738;9.320;2022-08-19T00:31:52;98336.28;;;25.32;51.25
21566;BME280;10943;48.738;9.320;2022-08-19T00:34:25;98328.34;;;25.13;52.54
21566;BME280;10943;48.738;9.320;2022-08-19T00:36:56;98322.63;;;25.01;54.11
21566;BME280;10943;48.738;9.320;2022-08-19T00:39:24;98316.00;;;24.97;52.59
21566;BME280;10943;48.738;9.320;2022-08-19T00:41:52;98317.56;;;25.07;53.94
21566;BME280;10943;48.738;9.320;2022-08-19T00:44:24;98323.56;;;24.93;53.80
21566;BME280;10943;48.738;9.320;2022-08-19T00:46:57;98322.59;;;24.88;53.42
21566;BME280;10943;48.738;9.320;2022-08-19T00:49:47;98323.00;;;24.66;54.34
21566;BME280;10943;48.738;9.320;2022-08-19T00:52:30;98327.50;;;24.67;53.94
21566;BME280;10943;48.738;9.320;2022-08-19T00:55:03;98332.44;;;24.70;53.96
21566;BME280;10943;48.738;9.320;2022-08-19T00:57:43;98332.00;;;24.68;52.78
21566;BME280;10943;48.738;9.320;2022-08-19T01:00:19;98330.69;;;24.65;53.83
21566;BME280;10943;48.738;9.320;2022-08-19T01:02:47;98323.72;;;24.75;53.23
21566;BME280;10943;48.738;9.320;2022-08-19T01:05:25;98340.78;;;24.87;52.81
21566;BME280;10943;48.738;9.320;2022-08-19T01:08:00;98333.81;;;24.85;52.76
21566;BME280;10943;48.738;9.320;2022-08-19T01:10:39;98333.44;;;24.74;53.03
21566;BME280;10943;48.738;9.320;2022-08-19T01:13:09;98337.22;;;24.78;52.61
21566;BME280;10943;48.738;9.320;2022-08-19T01:15:55;98331.34;;;24.83;53.02
21566;BME280;10943;48.738;9.320;2022-08-19T01:18:27;98326.13;;;24.85;52.72
21566;BME280;10943;48.738;9.320;2022-08-19T01:21:01;98329.22;;;24.93;52.17
21566;BME280;10943;48.738;9.320;2022-08-19T01:23:30;98332.78;;;25.02;51.44
21566;BME280;10943;48.738;9.320;2022-08-19T01:26:15;98319.78;;;25.01;51.34
21566;BME280;10943;48.738;9.320;2022-08-19T01:28:49;98321.91;;;24.92;50.93
21566;BME280;10943;48.738;9.320;2022-08-19T01:31:23;98312.22;;;24.93;51.07
21566;BME280;10943;48.738;9.320;2022-08-19T01:33:57;98319.16;;;24.83;51.19
21566;BME280;10943;48.738;9.320;2022-08-19T01:36:35;98318.78;;;24.84;51.20
21566;BME280;10943;48.738;9.320;2022-08-19T01:39:11;98315.41;;;24.91;51.01
21566;BME280;10943;48.738;9.320;2022-08-19T01:41:40;98317.38;;;24.78;50.87
21566;BME280;10943;48.738;9.320;2022-08-19T01:44:09;98318.56;;;24.90;49.85
21566;BME280;10943;48.738;9.320;2022-08-19T01:46:47;98320.47;;;24.85;51.01
21566;BME280;10943;48.738;9.320;2022-08-19T01:49:19;98310.25;;;24.72;50.72
21566;BME280;10943;48.738;9.320;2022-08-19T01:51:49;98316.75;;;24.73;50.76
21566;BME280;10943;48.738;9.320;2022-08-19T01:54:19;98314.91;;;24.77;50.59
21566;BME280;10943;48.738;9.320;2022-08-19T01:57:08;98312.09;;;24.89;50.00
21566;BME280;10943;48.738;9.320;2022-08-19T01:59:40;98312.81;;;24.98;49.78
21566;BME280;10943;48.738;9.320;2022-08-19T02:02:08;98314.53;;;25.12;49.05
21566;BME280;10943;48.738;9.320;2022-08-19T02:04:37;98317.91;;;25.05;49.27
21566;BME280;10943;48.738;9.320;2022-08-19T02:07:06;98316.72;;;24.94;49.96
21566;BME280;10943;48.738;9.320;2022-08-19T02:09:35;98324.50;;;24.97;49.93
21566;BME280;10943;48.738;9.320;2022-08-19T02:12:04;98316.44;;;24.86;49.80
21566;BME280;10943;48.738;9.320;2022-08-19T02:14:35;98316.19;;;24.79;49.94
21566;BME280;10943;48.738;9.320;2022-08-19T02:17:03;98315.00;;;24.80;50.03
21566;BME280;10943;48.738;9.320;2022-08-19T02:19:31;98322.03;;;24.95;49.39
21566;BME280;10943;48.738;9.320;2022-08-19T02:22:07;98325.34;;;24.97;49.29
21566;BME280;10943;48.738;9.320;2022-08-19T02:24:34;98323.50;;;24.80;49.77
21566;BME280;10943;48.738;9.320;2022-08-19T02:27:01;98334.19;;;24.96;49.30
21566;BME280;10943;48.738;9.320;2022-08-19T02:29:29;98332.06;;;24.93;49.47
21566;BME280;10943;48.738;9.320;2022-08-19T02:31:56;98331.13;;;24.88;49.73
21566;BME280;10943;48.738;9.320;2022-08-19T02:34:24;98331.91;;;24.77;50.40
21566;BME280;10943;48.738;9.320;2022-08-19T02:36:52;98326.84;;;24.82;50.09
21566;BME280;10943;48.738;9.320;2022-08-19T02:39:19;98314.44;;;24.87;49.79
21566;BME280;10943;48.738;9.320;2022-08-19T02:41:46;98313.66;;;25.11;48.95
21566;BME280;10943;48.738;9.320;2022-08-19T02:44:14;98317.69;;;25.10;49.07
21566;BME280;10943;48.738;9.320;2022-08-19T02:46:57;98312.81;;;24.98;49.38
21566;BME280;10943;48.738;9.320;2022-08-19T02:49:24;98317.72;;;24.77;49.67
21566;BME280;10943;48.738;9.320;2022-08-19T02:51:52;98316.22;;;24.92;49.62
21566;BME280;10943;48.738;9.320;2022-08-19T02:54:19;98311.72;;;24.91;49.73
21566;BME280;10943;48.738;9.320;2022-08-19T02:56:46;98301.34;;;24.95;49.46
21566;BME280;10943;48.738;9.320;2022-08-19T02:59:13;98296.75;;;24.90;49.72
21566;BME280;10943;48.738;9.320;2022-08-19T03:01:42;98303.94;;;25.00;49.46
21566;BME280;10943;48.738;9.320;2022-08-19T03:04:13;98299.72;;;25.06;48.97
21566;BME280;10943;48.738;9.320;2022-08-19T03:06:45;98307.06;;;25.19;48.98
21566;BME280;10943;48.738;9.320;2022-08-19T03:09:14;98318.84;;;24.97;49.60
21566;BME280;10943;48.738;9.320;2022-08-19T03:11:42;98319.06;;;24.92;49.67
21566;BME280;10943;48.738;9.320;2022-08-19T03:14:11;98320.00;;;24.83;49.84
21566;BME280;10943;48.738;9.320;2022-08-19T03:16:49;98318.34;;;24.82;50.15
21566;BME280;10943;48.738;9.320;2022-08-19T03:19:19;98326.34;;;24.80;49.65
21566;BME280;10943;48.738;9.320;2022-08-19T03:21:51;98332.38;;;24.79;49.92
21566;BME280;10943;48.738;9.320;2022-08-19T03:24:20;98332.16;;;24.84;50.03
21566;BME280;10943;48.738;9.320;2022-08-19T03:26:52;98346.16;;;24.68;50.47
21566;BME280;10943;48.738;9.320;2022-08-19T03:29:27;98338.50;;;24.60;50.41
21566;BME280;10943;48.738;9.320;2022-08-19T03:32:00;98335.44;;;24.52;50.76
21566;BME280;10943;48.738;9.320;2022-08-19T03:34:33;98326.94;;;24.52;50.93
21566;BME280;10943;48.738;9.320;2022-08-19T03:37:08;98336.69;;;24.64;50.42
21566;BME280;10943;48.738;9.320;2022-08-19T03:39:39;98335.06;;;24.54;50.88
21566;BME280;10943;48.738;9.320;2022-08-19T03:42:10;98333.69;;;24.39;50.95
21566;BME280;10943;48.738;9.320;2022-08-19T03:44:58;98330.94;;;24.30;51.69
21566;BME280;10943;48.738;9.320;2022-08-19T03:47:25;98328.66;;;24.02;52.32
21566;BME280;10943;48.738;9.320;2022-08-19T03:49:52;98331.28;;;24.08;52.04
21566;BME280;10943;48.738;9.320;2022-08-19T03:52:20;98328.59;;;24.32;51.58
21566;BME280;10943;48.738;9.320;2022-08-19T03:54:47;98333.56;;;24.57;50.72
21566;BME280;10943;48.738;9.320;2022-08-19T03:57:14;98333.06;;;24.54;50.93
21566;BME280;10943;48.738;9.320;2022-08-19T03:59:41;98332.31;;;24.45;51.11
21566;BME280;10943;48.738;9.320;2022-08-19T04:02:12;98341.44;;;24.30;51.24
21566;BME280;10943;48.738;9.320;2022-08-19T04:04:43;98331.31;;;24.29;51.24
21566;BME280;10943;48.738;9.320;2022-08-19T04:07:14;98339.81;;;24.29;51.65
21566;BME280;10943;48.738;9.320;2022-08-19T04:09:48;98339.66;;;24.25;51.54
21566;BME280;10943;48.738;9.320;2022-08-19T04:12:17;98341.50;;;24.42;51.07
21566;BME280;10943;48.738;9.320;2022-08-19T04:14:47;98330.00;;;24.26;51.41
21566;BME280;10943;48.738;9.320;2022-08-19T04:17:14;98325.69;;;24.20;51.88
21566;BME280;10943;48.738;9.320;2022-08-19T04:19:42;98325.44;;;24.34;51.06
21566;BME280;10943;48.738;9.320;2022-08-19T04:22:09;98325.13;;;24.27;51.33
21566;BME280;10943;48.738;9.320;2022-08-19T04:24:38;98331.41;;;24.32;50.86
21566;BME280;10943;48.738;9.320;2022-08-19T04:27:06;98322.50;;;24.43;50.60
21566;BME280;10943;48.738;9.320;2022-08-19T04:29:33;98318.31;;;24.28;51.23
21566;BME280;10943;48.738;9.320;2022-08-19T04:32:01;98325.56;;;24.16;51.72
21566;BME280;10943;48.738;9.320;2022-08-19T04:34:37;98323.63;;;24.29;51.55
21566;BME280;10943;48.738;9.320;2022-08-19T04:37:26;98325.97;;;24.27;51.40
21566;BME280;10943;48.738;9.320;2022-08-19T04:40:04;98331.56;;;24.36;51.30
21566;BME280;10943;48.738;9.320;2022-08-19T04:42:51;98316.09;;;24.12;51.73
21566;BME280;10943;48.738;9.320;2022-08-19T04:45:19;98317.97;;;24.29;51.31
21566;BME280;10943;48.738;9.320;2022-08-19T04:47:49;98327.00;;;24.65;50.36
21566;BME280;10943;48.738;9.320;2022-08-19T04:50:43;98320.31;;;24.48;51.04
21566;BME280;10943;48.738;9.320;2022-08-19T04:53:11;98331.22;;;24.37;51.20
21566;BME280;10943;48.738;9.320;2022-08-19T04:55:41;98326.94;;;24.52;50.90
21566;BME280;10943;48.738;9.320;2022-08-19T04:58:09;98327.06;;;24.56;50.64
21566;BME280;10943;48.738;9.320;2022-08-19T05:00:39;98336.53;;;24.60;50.50
21566;BME280;10943;48.738;9.320;2022-08-19T05:03:07;98342.75;;;24.53;50.51
21566;BME280;10943;48.738;9.320;2022-08-19T05:05:40;98343.50;;;24.63;50.49
21566;BME280;10943;48.738;9.320;2022-08-19T05:08:16;98356.81;;;24.62;50.36
21566;BME280;10943;48.738;9.320;2022-08-19T05:10:58;98360.66;;;24.45;50.83
21566;BME280;10943;48.738;9.320;2022-08-19T05:13:25;98357.13;;;24.48;50.67
21566;BME280;10943;48.738;9.320;2022-08-19T05:15:57;98364.09;;;24.30;51.41
21566;BME280;10943;48.738;9.320;2022-08-19T05:18:26;98373.63;;;24.46;51.02
21566;BME280;10943;48.738;9.320;2022-08-19T05:21:18;98384.16;;;24.46;50.55
21566;BME280;10943;48.738;9.320;2022-08-19T05:24:06;98393.69;;;24.41;51.08
21566;BME280;10943;48.738;9.320;2022-08-19T05:26:37;98410.28;;;24.51;50.80
21566;BME280;10943;48.738;9.320;2022-08-19T05:29:07;98414.34;;;24.63;50.25
21566;BME280;10943;48.738;9.320;2022-08-19T05:31:37;98427.19;;;24.69;50.32
21566;BME280;10943;48.738;9.320;2022-08-19T05:34:09;98430.28;;;24.76;49.96
21566;BME280;10943;48.738;9.320;2022-08-19T05:36:47;98435.38;;;24.62;50.60
21566;BME280;10943;48.738;9.320;2022-08-19T05:39:20;98435.47;;;24.74;50.29
21566;BME280;10943;48.738;9.320;2022-08-19T05:41:56;98436.16;;;24.71;50.24
21566;BME280;10943;48.738;9.320;2022-08-19T05:44:29;98436.28;;;24.75;50.30
21566;BME280;10943;48.738;9.320;2022-08-19T05:47:03;98431.03;;;24.85;49.92
21566;BME280;10943;48.738;9.320;2022-08-19T05:49:34;98433.09;;;24.76;50.04
21566;BME280;10943;48.738;9.320;2022-08-19T05:52:07;98420.91;;;24.97;49.64
21566;BME280;10943;48.738;9.320;2022-08-19T05:54:40;98429.94;;;24.99;49.64
21566;BME280;10943;48.738;9.320;2022-08-19T05:57:10;98432.19;;;24.84;49.92
21566;BME280;10943;48.738;9.320;2022-08-19T05:59:39;98430.63;;;24.75;50.29
21566;BME280;10943;48.738;9.320;2022-08-19T06:02:06;98424.69;;;24.88;50.15
21566;BME280;10943;48.738;9.320;2022-08-19T06:04:34;98427.38;;;24.85;50.81
21566;BME280;10943;48.738;9.320;2022-08-19T06:07:02;98430.13;;;24.94;50.07
21566;BME280;10943;48.738;9.320;2022-08-19T06:09:40;98436.69;;;24.85;50.29
21566;BME280;10943;48.738;9.320;2022-08-19T06:12:25;98436.28;;;24.96;49.95
21566;BME280;10943;48.738;9.320;2022-08-19T06:14:56;98431.03;;;24.85;50.16
21566;BME280;10943;48.738;9.320;2022-08-19T06:17:29;98431.88;;;24.86;50.55
21566;BME280;10943;48.738;9.320;2022-08-19T06:19:58;98427.16;;;24.90;50.22
21566;BME280;10943;48.738;9.320;2022-08-19T06:22:27;98433.44;;;24.96;50.29
21566;BME280;10943;48.738;9.320;2022-08-19T06:24:55;98431.16;;;24.89;50.66
21566;BME280;10943;48.738;9.320;2022-08-19T06:27:23;98434.47;;;25.12;49.57
21566;BME280;10943;48.738;9.320;2022-08-19T06:29:50;98440.88;;;25.21;49.79
21566;BME280;10943;48.738;9.320;2022-08-19T06:32:18;98441.56;;;25.18;50.06
21566;BME280;10943;48.738;9.320;2022-08-19T06:34:46;98443.69;;;25.09;50.30
21566;BME280;10943;48.738;9.320;2022-08-19T06:37:14;98442.63;;;25.14;51.28
21566;BME280;10943;48.738;9.320;2022-08-19T06:39:43;98437.78;;;25.14;51.21
21566;BME280;10943;48.738;9.320;2022-08-19T06:42:12;98439.91;;;25.17;50.98
21566;BME280;10943;48.738;9.320;2022-08-19T06:44:46;98438.31;;;25.08;52.11
21566;BME280;10943;48.738;9.320;2022-08-19T06:47:21;98443.22;;;25.19;51.15
21566;BME280;10943;48.738;9.320;2022-08-19T06:49:56;98444.00;;;25.08;51.80
21566;BME280;10943;48.738;9.320;2022-08-19T06:52:34;98441.31;;;25.45;50.76
21566;BME280;10943;48.738;9.320;2022-08-19T06:55:05;98450.94;;;25.65;50.18
21566;BME280;10943;48.738;9.320;2022-08-19T06:57:34;98444.81;;;25.75;50.32
21566;BME280;10943;48.738;9.320;2022-08-19T07:00:03;98445.41;;;25.81;51.49
21566;BME280;10943;48.738;9.320;2022-08-19T07:02:42;98452.84;;;25.85;52.31
21566;BME280;10943;48.738;9.320;2022-08-19T07:05:22;98454.84;;;25.27;55.53
21566;BME280;10943;48.738;9.320;2022-08-19T07:07:49;98453.28;;;24.96;56.14
21566;BME280;10943;48.738;9.320;2022-08-19T07:10:18;98447.81;;;24.91;57.09
21566;BME280;10943;48.738;9.320;2022-08-19T07:12:52;98451.88;;;24.60;57.31
21566;BME280;10943;48.738;9.320;2022-08-19T07:15:21;98456.81;;;24.42;59.11
21566;BME280;10943;48.738;9.320;2022-08-19T07:17:48;98454.13;;;24.24;59.88
21566;BME280;10943;48.738;9.320;2022-08-19T07:20:19;98452.50;;;24.14;60.72
21566;BME280;10943;48.738;9.320;2022-08-19T07:22:46;98447.31;;;24.16;60.56
21566;BME280;10943;48.738;9.320;2022-08-19T07:25:14;98449.03;;;24.09;61.18
21566;BME280;10943;48.738;9.320;2022-08-19T07:27:44;98445.06;;;24.01;61.16
21566;BME280;10943;48.738;9.320;2022-08-19T07:30:12;98459.66;;;23.73;64.10
21566;BME280;10943;48.738;9.320;2022-08-19T07:32:40;98459.72;;;23.55;68.14
21566;BME280;10943;48.738;9.320;2022-08-19T07:35:09;98459.03;;;23.59;68.95
21566;BME280;10943;48.738;9.320;2022-08-19T07:37:37;98459.34;;;23.66;68.78
21566;BME280;10943;48.738;9.320;2022-08-19T07:40:07;98462.00;;;23.71;67.81
21566;BME280;10943;48.738;9.320;2022-08-19T07:42:35;98458.72;;;23.51;68.23
21566;BME280;10943;48.738;9.320;2022-08-19T07:45:05;98463.53;;;23.60;68.75
21566;BME280;10943;48.738;9.320;2022-08-19T07:47:33;98462.72;;;23.50;70.04
21566;BME280;10943;48.738;9.320;2022-08-19T07:50:19;98467.19;;;23.60;70.24
21566;BME280;10943;48.738;9.320;2022-08-19T07:52:49;98469.53;;;23.49;71.10
21566;BME280;10943;48.738;9.320;2022-08-19T07:55:22;98466.84;;;23.70;70.60
21566;BME280;10943;48.738;9.320;2022-08-19T07:58:09;98474.00;;;23.68;71.14
21566;BME280;10943;48.738;9.320;2022-08-19T08:00:38;98471.78;;;23.82;69.91
21566;BME280;10943;48.738;9.320;2022-08-19T08:03:06;98469.44;;;23.84;71.22
21566;BME280;10943;48.738;9.320;2022-08-19T08:05:33;98468.25;;;23.85;70.20
21566;BME280;10943;48.738;9.320;2022-08-19T08:08:20;98464.31;;;23.69;70.83
21566;BME280;10943;48.738;9.320;2022-08-19T08:11:18;98474.38;;;23.58;70.61
21566;BME280;10943;48.738;9.320;2022-08-19T08:13:48;98477.72;;;23.42;70.36
21566;BME280;10943;48.738;9.320;2022-08-19T08:16:34;98477.19;;;23.58;70.58
21566;BME280;10943;48.738;9.320;2022-08-19T08:19:14;98478.75;;;23.85;68.47
21566;BME280;10943;48.738;9.320;2022-08-19T08:21:54;98471.03;;;23.55;67.35
21566;BME280;10943;48.738;9.320;2022-08-19T08:24:25;98479.56;;;23.38;70.57
21566;BME280;10943;48.738;9.320;2022-08-19T08:26:55;98474.84;;;23.60;67.88
21566;BME280;10943;48.738;9.320;2022-08-19T08:29:27;98482.69;;;23.54;67.72
21566;BME280;10943;48.738;9.320;2022-08-19T08:32:01;98481.28;;;23.69;68.25
21566;BME280;10943;48.738;9.320;2022-08-19T08:34:29;98470.66;;;23.75;68.22
21566;BME280;10943;48.738;9.320;2022-08-19T08:36:56;98474.63;;;23.73;66.31
21566;BME280;10943;48.738;9.320;2022-08-19T08:39:24;98472.25;;;23.84;69.00
21566;BME280;10943;48.738;9.320;2022-08-19T08:42:08;98465.13;;;24.17;67.01
21566;BME280;10943;48.738;9.320;2022-08-19T08:45:05;98462.75;;;24.28;62.66
21566;BME280;10943;48.738;9.320;2022-08-19T08:47:44;98467.69;;;24.39;62.03
21566;BME280;10943;48.738;9.320;2022-08-19T08:50:38;98469.38;;;24.62;61.75
21566;BME280;10943;48.738;9.320;2022-08-19T08:53:11;98469.19;;;24.88;59.53
21566;BME280;10943;48.738;9.320;2022-08-19T08:55:53;98483.09;;;25.02;59.75
21566;BME280;10943;48.738;9.320;2022-08-19T08:58:55;98479.63;;;25.17;57.82
21566;BME280;10943;48.738;9.320;2022-08-19T09:01:26;98482.63;;;25.33;56.73
21566;BME280;10943;48.738;9.320;2022-08-19T09:03:57;98487.16;;;25.68;55.34
21566;BME280;10943;48.738;9.320;2022-08-19T09:09:34;98487.69;;;25.95;54.43
21566;BME280;10943;48.738;9.320;2022-08-19T09:16:11;98497.59;;;26.01;55.33
21566;BME280;10943;48.738;9.320;2022-08-19T09:18:48;98502.13;;;25.90;55.00
21566;BME280;10943;48.738;9.320;2022-08-19T09:21:22;98499.28;;;26.02;54.46
21566;BME280;10943;48.738;9.320;2022-08-19T09:23:59;98493.94;;;26.00;54.14
21566;BME280;10943;48.738;9.320;2022-08-19T09:26:33;98503.13;;;26.18;55.68
21566;BME280;10943;48.738;9.320;2022-08-19T09:29:19;98498.34;;;26.10;53.84
21566;BME280;10943;48.738;9.320;2022-08-19T09:31:49;98501.22;;;26.35;53.23
21566;BME280;10943;48.738;9.320;2022-08-19T09:34:17;98496.84;;;26.25;55.57
21566;BME280;10943;48.738;9.320;2022-08-19T09:36:49;98504.53;;;26.37;56.47
21566;BME280;10943;48.738;9.320;2022-08-19T09:39:24;98507.38;;;26.12;55.55
21566;BME280;10943;48.738;9.320;2022-08-19T09:42:02;98499.41;;;25.60;59.80
21566;BME280;10943;48.738;9.320;2022-08-19T09:44:30;98508.88;;;25.30;58.95
21566;BME280;10943;48.738;9.320;2022-08-19T09:46:57;98512.34;;;25.36;60.05
21566;BME280;10943;48.738;9.320;2022-08-19T09:49:25;98512.75;;;25.26;60.47
21566;BME280;10943;48.738;9.320;2022-08-19T09:51:52;98514.41;;;25.27;59.08
21566;BME280;10943;48.738;9.320;2022-08-19T09:54:23;98508.75;;;25.27;57.83
21566;BME280;10943;48.738;9.320;2022-08-19T09:56:53;98514.41;;;24.54;61.72
21566;BME280;10943;48.738;9.320;2022-08-19T09:59:21;98513.19;;;24.94;61.01
21566;BME280;10943;48.738;9.320;2022-08-19T10:01:48;98503.00;;;24.93;58.89
21566;BME280;10943;48.738;9.320;2022-08-19T10:04:16;98511.56;;;24.84;60.50
21566;BME280;10943;48.738;9.320;2022-08-19T10:06:50;98508.72;;;24.63;59.88
21566;BME280;10943;48.738;9.320;2022-08-19T10:09:20;98507.50;;;24.73;60.12
21566;BME280;10943;48.738;9.320;2022-08-19T10:12:01;98511.78;;;24.79;59.10
21566;BME280;10943;48.738;9.320;2022-08-19T10:14:32;98505.03;;;24.63;63.20
21566;BME280;10943;48.738;9.320;2022-08-19T10:17:03;98510.22;;;24.61;63.78
21566;BME280;10943;48.738;9.320;2022-08-19T10:19:47;98510.56;;;24.89;62.04
21566;BME280;10943;48.738;9.320;2022-08-19T10:22:22;98508.81;;;24.97;62.62
21566;BME280;10943;48.738;9.320;2022-08-19T10:24:52;98507.91;;;25.05;59.93
21566;BME280;10943;48.738;9.320;2022-08-19T10:27:20;98507.25;;;25.08;61.41
21566;BME280;10943;48.738;9.320;2022-08-19T10:29:48;98508.00;;;25.17;61.12
21566;BME280;10943;48.738;9.320;2022-08-19T10:32:16;98507.06;;;25.26;58.90
21566;BME280;10943;48.738;9.320;2022-08-19T10:34:43;98492.84;;;24.92;61.34
21566;BME280;10943;48.738;9.320;2022-08-19T10:37:17;98498.41;;;24.88;63.46
21566;BME280;10943;48.738;9.320;2022-08-19T10:39:55;98494.94;;;25.04;61.75
21566;BME280;10943;48.738;9.320;2022-08-19T10:42:23;98495.06;;;24.86;64.43
21566;BME280;10943;48.738;9.320;2022-08-19T10:44:51;98495.22;;;24.69;65.51
21566;BME280;10943;48.738;9.320;2022-08-19T10:47:18;98506.41;;;24.86;63.88
21566;BME280;10943;48.738;9.320;2022-08-19T10:49:55;98496.25;;;25.07;61.76
21566;BME280;10943;48.738;9.320;2022-08-19T10:52:47;98498.72;;;24.66;64.43
21566;BME280;10943;48.738;9.320;2022-08-19T10:55:23;98497.53;;;24.07;68.85
21566;BME280;10943;48.738;9.320;2022-08-19T10:58:15;98501.44;;;24.24;66.82
21566;BME280;10943;48.738;9.320;2022-08-19T11:00:56;98503.75;;;24.30;66.67
21566;BME280;10943;48.738;9.320;2022-08-19T11:03:26;98497.75;;;23.93;68.29
21566;BME280;10943;48.738;9.320;2022-08-19T11:06:12;98504.78;;;23.78;69.25
21566;BME280;10943;48.738;9.320;2022-08-19T11:08:39;98511.78;;;23.63;71.02
21566;BME280;10943;48.738;9.320;2022-08-19T11:11:08;98512.84;;;23.23;75.28
21566;BME280;10943;48.738;9.320;2022-08-19T11:13:39;98506.31;;;23.49;75.59
21566;BME280;10943;48.738;9.320;2022-08-19T11:16:15;98496.41;;;23.82;73.65
21566;BME280;10943;48.738;9.320;2022-08-19T11:18:54;98506.13;;;23.54;77.15
21566;BME280;10943;48.738;9.320;2022-08-19T11:21:38;98501.53;;;23.32;80.01
21566;BME280;10943;48.738;9.320;2022-08-19T11:24:15;98504.00;;;23.51;79.46
21566;BME280;10943;48.738;9.320;2022-08-19T11:26:52;98498.16;;;23.56;77.40
21566;BME280;10943;48.738;9.320;2022-08-19T11:29:25;98498.34;;;23.34;76.36
21566;BME280;10943;48.738;9.320;2022-08-19T11:31:55;98498.56;;;23.20;79.38
21566;BME280;10943;48.738;9.320;2022-08-19T11:34:26;98503.47;;;23.58;78.06
21566;BME280;10943;48.738;9.320;2022-08-19T11:36:56;98508.00;;;23.42;79.01
21566;BME280;10943;48.738;9.320;2022-08-19T11:39:30;98508.34;;;23.40;78.19
21566;BME280;10943;48.738;9.320;2022-08-19T11:42:00;98504.81;;;23.61;76.27
21566;BME280;10943;48.738;9.320;2022-08-19T11:44:28;98504.13;;;23.64;75.84
21566;BME280;10943;48.738;9.320;2022-08-19T11:46:57;98500.81;;;23.62;74.85
21566;BME280;10943;48.738;9.320;2022-08-19T11:49:35;98495.69;;;24.02;72.18
21566;BME280;10943;48.738;9.320;2022-08-19T11:52:03;98500.94;;;24.21;73.16
21566;BME280;10943;48.738;9.320;2022-08-19T11:54:30;98497.19;;;24.38;70.53
21566;BME280;10943;48.738;9.320;2022-08-19T11:56:57;98496.97;;;24.14;72.78
21566;BME280;10943;48.738;9.320;2022-08-19T11:59:25;98501.19;;;23.99;75.37
21566;BME280;10943;48.738;9.320;2022-08-19T12:01:53;98494.38;;;24.00;73.42
21566;BME280;10943;48.738;9.320;2022-08-19T12:04:23;98499.03;;;24.04;72.51
21566;BME280;10943;48.738;9.320;2022-08-19T12:06:51;98493.94;;;23.71;75.51
21566;BME280;10943;48.738;9.320;2022-08-19T12:09:19;98495.50;;;23.60;76.20
21566;BME280;10943;48.738;9.320;2022-08-19T12:11:48;98501.59;;;23.80;74.19
21566;BME280;10943;48.738;9.320;2022-08-19T12:14:18;98496.75;;;23.80;74.39
21566;BME280;10943;48.738;9.320;2022-08-19T12:16:46;98501.34;;;23.29;77.56
21566;BME280;10943;48.738;9.320;2022-08-19T12:19:19;98503.66;;;23.44;77.41
21566;BME280;10943;48.738;9.320;2022-08-19T12:21:49;98496.03;;;23.36;76.63
21566;BME280;10943;48.738;9.320;2022-08-19T12:24:17;98500.31;;;23.60;73.43
21566;BME280;10943;48.738;9.320;2022-08-19T12:26:51;98503.38;;;23.37;73.72
21566;BME280;10943;48.738;9.320;2022-08-19T12:29:21;98509.03;;;23.19;75.23
21566;BME280;10943;48.738;9.320;2022-08-19T12:31:51;98510.88;;;23.24;75.65
21566;BME280;10943;48.738;9.320;2022-08-19T12:34:18;98502.84;;;23.44;75.25
21566;BME280;10943;48.738;9.320;2022-08-19T12:36:47;98497.38;;;23.21;78.36
21566;BME280;10943;48.738;9.320;2022-08-19T12:39:16;98494.38;;;23.08;78.81
21566;BME280;10943;48.738;9.320;2022-08-19T12:41:43;98503.53;;;23.14;78.41
21566;BME280;10943;48.738;9.320;2022-08-19T12:44:22;98510.44;;;23.69;76.30
21566;BME280;10943;48.738;9.320;2022-08-19T12:46:56;98507.09;;;23.94;74.15
21566;BME280;10943;48.738;9.320;2022-08-19T12:49:24;98507.72;;;23.99;72.02
21566;BME280;10943;48.738;9.320;2022-08-19T12:52:12;98506.03;;;23.89;75.27
21566;BME280;10943;48.738;9.320;2022-08-19T12:54:49;98510.56;;;24.29;73.90
21566;BME280;10943;48.738;9.320;2022-08-19T12:57:23;98511.28;;;24.26;71.83
21566;BME280;10943;48.738;9.320;2022-08-19T13:00:13;98514.56;;;24.58;69.09
21566;BME280;10943;48.738;9.320;2022-08-19T13:02:48;98517.75;;;24.27;69.82
21566;BME280;10943;48.738;9.320;2022-08-19T13:05:25;98519.06;;;24.29;69.49
21566;BME280;10943;48.738;9.320;2022-08-19T13:07:57;98525.84;;;23.89;70.13
21566;BME280;10943;48.738;9.320;2022-08-19T13:10:33;98523.47;;;23.53;72.03
21566;BME280;10943;48.738;9.320;2022-08-19T13:13:07;98523.97;;;23.46;73.88
21566;BME280;10943;48.738;9.320;2022-08-19T13:16:01;98529.41;;;23.78;71.69
21566;BME280;10943;48.738;9.320;2022-08-19T13:18:30;98530.72;;;23.80;70.97
21566;BME280;10943;48.738;9.320;2022-08-19T13:21:04;98540.78;;;23.60;71.75
21566;BME280;10943;48.738;9.320;2022-08-19T13:23:34;98543.94;;;23.23;73.80
21566;BME280;10943;48.738;9.320;2022-08-19T13:26:07;98550.22;;;22.85;76.64
21566;BME280;10943;48.738;9.320;2022-08-19T13:28:35;98546.91;;;22.74;75.79
21566;BME280;10943;48.738;9.320;2022-08-19T13:31:25;98547.28;;;23.08;74.20
21566;BME280;10943;48.738;9.320;2022-08-19T13:34:13;98537.28;;;23.02;75.07
21566;BME280;10943;48.738;9.320;2022-08-19T13:36:41;98535.78;;;23.04;76.20